Time;durP1;ratioP1;P1;durP2;ratioP2;P2;SDS_P1;SDS_P2;PMS_P1;PMS_P2;Temp;Humidity;BMP_temperature;BMP_pressure;BME280_temperature;BME280_humidity;BME280_pressure;Samples;Min_cycle;Max_cycle;Signal;HPM_P1;HPM_P2
2022/06/21 00:01:25;;;;;;;7.57;2.40;;;;;;;;;;5051599;28;20445;-70
2022/06/21 00:03:52;;;;;;;10.25;2.47;;;;;;;;;;5053221;28;20045;-70
2022/06/21 00:06:20;;;;;;;10.18;2.03;;;;;;;;;;5053149;28;20098;-70
2022/06/21 00:08:46;;;;;;;10.38;2.30;;;;;;;;;;5054365;28;20403;-70
2022/06/21 00:11:22;;;;;;;9.52;2.15;;;;;;;;;;5053948;28;20048;-70
2022/06/21 00:13:48;;;;;;;11.77;2.20;;;;;;;;;;5052904;28;20048;-70
2022/06/21 00:16:15;;;;;;;10.23;2.10;;;;;;;;;;5053237;28;20124;-70
2022/06/21 00:18:42;;;;;;;9.48;2.20;;;;;;;;;;5053252;28;20041;-70
2022/06/21 00:21:19;;;;;;;9.30;2.30;;;;;;;;;;5052869;28;20122;-70
2022/06/21 00:23:45;;;;;;;8.25;2.13;;;;;;;;;;5052818;28;20068;-70
2022/06/21 00:26:12;;;;;;;7.85;2.08;;;;;;;;;;5052629;28;20384;-70
2022/06/21 00:28:39;;;;;;;9.18;2.70;;;;;;;;;;5051789;28;20045;-70
2022/06/21 00:31:09;;;;;;;9.35;2.15;;;;;;;;;;5051485;28;20495;-71
2022/06/21 00:33:35;;;;;;;9.43;2.30;;;;;;;;;;5052506;28;20053;-71
2022/06/21 00:36:03;;;;;;;9.88;2.22;;;;;;;;;;5050403;28;20063;-71
2022/06/21 00:38:30;;;;;;;10.43;2.28;;;;;;;;;;5036421;28;20051;-69
2022/06/21 00:40:57;;;;;;;9.52;2.40;;;;;;;;;;5053139;28;20049;-71
2022/06/21 00:43:26;;;;;;;7.70;2.50;;;;;;;;;;5051703;28;20107;-70
2022/06/21 00:45:52;;;;;;;9.75;2.17;;;;;;;;;;5052793;28;20068;-71
2022/06/21 00:48:19;;;;;;;9.20;2.50;;;;;;;;;;5050216;28;20052;-71
2022/06/21 00:50:51;;;;;;;7.50;2.28;;;;;;;;;;5053115;28;20123;-70
2022/06/21 00:53:22;;;;;;;6.78;2.00;;;;;;;;;;5050873;28;20143;-71
2022/06/21 00:55:48;;;;;;;9.25;2.30;;;;;;;;;;5049568;28;20041;-70
2022/06/21 00:58:15;;;;;;;7.72;2.13;;;;;;;;;;5050216;28;20079;-69
2022/06/21 01:00:59;;;;;;;10.40;2.60;;;;;;;;;;5051230;28;20415;-70
2022/06/21 01:03:27;;;;;;;8.32;2.20;;;;;;;;;;5052223;28;20125;-70
2022/06/21 01:05:54;;;;;;;9.98;2.00;;;;;;;;;;5052899;28;20045;-70
2022/06/21 01:08:23;;;;;;;9.13;2.30;;;;;;;;;;5051570;28;20041;-70
2022/06/21 01:10:52;;;;;;;10.00;2.10;;;;;;;;;;5034551;28;20055;-70
2022/06/21 01:13:19;;;;;;;8.40;2.40;;;;;;;;;;5051410;28;20487;-70
2022/06/21 01:15:49;;;;;;;8.60;2.40;;;;;;;;;;5051731;28;20447;-71
2022/06/21 01:18:16;;;;;;;6.50;2.22;;;;;;;;;;5052504;28;20040;-71
2022/06/21 01:20:45;;;;;;;8.98;2.55;;;;;;;;;;5018918;28;20048;-71
2022/06/21 01:23:30;;;;;;;10.75;2.55;;;;;;;;;;5051389;28;20377;-71
2022/06/21 01:26:03;;;;;;;11.80;2.50;;;;;;;;;;5045072;28;20049;-70
2022/06/21 01:28:29;;;;;;;9.05;2.45;;;;;;;;;;5050552;28;20037;-69
2022/06/21 01:30:56;;;;;;;11.05;2.40;;;;;;;;;;5053107;28;20033;-69
2022/06/21 01:33:28;;;;;;;13.38;2.65;;;;;;;;;;5051021;28;20036;-70
2022/06/21 01:35:56;;;;;;;12.57;2.92;;;;;;;;;;5051322;28;20267;-70
2022/06/21 01:38:25;;;;;;;9.93;2.60;;;;;;;;;;5051479;28;20368;-69
2022/06/21 01:40:56;;;;;;;11.73;2.85;;;;;;;;;;5050361;28;20045;-69
2022/06/21 01:43:23;;;;;;;7.82;2.20;;;;;;;;;;5033776;28;20048;-70
2022/06/21 01:45:56;;;;;;;9.38;2.60;;;;;;;;;;5052142;28;20083;-70
2022/06/21 01:48:23;;;;;;;8.50;2.45;;;;;;;;;;5036549;28;20044;-70
2022/06/21 01:50:52;;;;;;;9.05;2.40;;;;;;;;;;5049684;28;20487;-70
2022/06/21 01:53:20;;;;;;;9.73;2.50;;;;;;;;;;5051387;28;20098;-70
2022/06/21 01:55:53;;;;;;;9.30;2.53;;;;;;;;;;5045510;28;20045;-70
2022/06/21 01:58:20;;;;;;;8.60;2.28;;;;;;;;;;5051410;28;20045;-71
2022/06/21 02:00:49;;;;;;;7.63;2.20;;;;;;;;;;5052629;28;20049;-70
2022/06/21 02:03:17;;;;;;;5.90;2.05;;;;;;;;;;5052032;28;20049;-70
2022/06/21 02:05:46;;;;;;;6.20;2.15;;;;;;;;;;5051230;28;20049;-69
2022/06/21 02:08:13;;;;;;;5.47;1.85;;;;;;;;;;5032175;28;20037;-69
2022/06/21 02:10:45;;;;;;;6.63;2.10;;;;;;;;;;5052680;28;20140;-70
2022/06/21 02:13:25;;;;;;;5.70;2.15;;;;;;;;;;5033971;28;20499;-70
2022/06/21 02:15:53;;;;;;;7.90;2.25;;;;;;;;;;5050670;28;20037;-71
2022/06/21 02:18:21;;;;;;;7.32;2.60;;;;;;;;;;5050462;28;20041;-71
2022/06/21 02:21:02;;;;;;;10.93;2.65;;;;;;;;;;5052927;28;20077;-71
2022/06/21 02:23:28;;;;;;;9.65;2.60;;;;;;;;;;5054981;28;20112;-70
2022/06/21 02:25:56;;;;;;;8.40;2.38;;;;;;;;;;5036103;28;20568;-70
2022/06/21 02:28:22;;;;;;;8.38;2.70;;;;;;;;;;5053762;28;20046;-71
2022/06/21 02:30:50;;;;;;;8.45;2.67;;;;;;;;;;5055704;28;20507;-71
2022/06/21 02:33:18;;;;;;;10.10;2.70;;;;;;;;;;5037489;28;20053;-71
2022/06/21 02:35:47;;;;;;;12.60;2.85;;;;;;;;;;5053599;28;20128;-71
2022/06/21 02:38:23;;;;;;;12.98;3.00;;;;;;;;;;5056238;28;20449;-71
2022/06/21 02:40:51;;;;;;;11.88;3.20;;;;;;;;;;5054676;28;20513;-71
2022/06/21 02:43:20;;;;;;;9.73;2.92;;;;;;;;;;5055415;28;20057;-70
2022/06/21 02:45:52;;;;;;;10.07;2.90;;;;;;;;;;5037482;28;20055;-70
2022/06/21 02:48:20;;;;;;;8.50;2.95;;;;;;;;;;5053996;28;20045;-70
2022/06/21 02:50:51;;;;;;;8.15;3.10;;;;;;;;;;5036397;28;20499;-70
2022/06/21 02:53:22;;;;;;;10.10;3.25;;;;;;;;;;5055551;28;20448;-70
2022/06/21 02:55:48;;;;;;;;;;;;;;;;;;5055822;28;20049;-70
2022/06/21 02:58:20;;;;;;;9.30;3.42;;;;;;;;;;5054080;28;20003;-69
2022/06/21 03:00:47;;;;;;;8.32;3.00;;;;;;;;;;5035619;28;20056;-70
2022/06/21 03:03:20;;;;;;;9.95;3.30;;;;;;;;;;5054730;28;20037;-70
2022/06/21 03:05:48;;;;;;;10.85;3.40;;;;;;;;;;5052878;28;20049;-70
2022/06/21 03:08:14;;;;;;;10.30;2.83;;;;;;;;;;5054761;28;20041;-71
2022/06/21 03:10:43;;;;;;;8.70;2.83;;;;;;;;;;5054404;28;20051;-69
2022/06/21 03:13:14;;;;;;;8.85;2.97;;;;;;;;;;5055074;28;20518;-69
2022/06/21 03:15:41;;;;;;;10.52;3.10;;;;;;;;;;5052729;28;20045;-71
2022/06/21 03:18:09;;;;;;;8.55;2.63;;;;;;;;;;5055239;28;20146;-70
2022/06/21 03:20:36;;;;;;;6.93;2.58;;;;;;;;;;5055002;28;20047;-70
2022/06/21 03:23:03;;;;;;;11.13;3.00;;;;;;;;;;5055401;28;20041;-70
2022/06/21 03:25:43;;;;;;;8.93;3.20;;;;;;;;;;5048010;28;20083;-70
2022/06/21 03:28:38;;;;;;;9.18;3.17;;;;;;;;;;5053237;28;20388;-70
2022/06/21 03:31:10;;;;;;;10.32;3.28;;;;;;;;;;5037366;28;20182;-70
2022/06/21 03:33:38;;;;;;;11.52;3.28;;;;;;;;;;5035655;28;20049;-70
2022/06/21 03:36:06;;;;;;;10.63;3.33;;;;;;;;;;5052588;28;20045;-69
2022/06/21 03:38:32;;;;;;;8.90;3.05;;;;;;;;;;5052525;28;20051;-70
2022/06/21 03:43:46;;;;;;;6.95;2.50;;;;;;;;;;5054481;28;20053;-70
2022/06/21 03:46:15;;;;;;;8.10;2.30;;;;;;;;;;5051987;28;20044;-70
2022/06/21 03:48:45;;;;;;;8.10;2.47;;;;;;;;;;5053861;28;20602;-70
2022/06/21 03:51:17;;;;;;;7.25;2.83;;;;;;;;;;5053260;28;20037;-69
2022/06/21 03:53:45;;;;;;;7.90;2.75;;;;;;;;;;5054823;28;20052;-69
2022/06/21 03:56:18;;;;;;;9.32;2.83;;;;;;;;;;5053537;28;20048;-70
2022/06/21 03:58:49;;;;;;;5.68;2.20;;;;;;;;;;5044538;28;20087;-70
2022/06/21 04:01:29;;;;;;;8.77;2.40;;;;;;;;;;5043256;28;20045;-70
2022/06/21 04:04:10;;;;;;;10.23;2.67;;;;;;;;;;5053682;28;20048;-70
2022/06/21 04:06:36;;;;;;;8.45;2.50;;;;;;;;;;5050137;28;20061;-69
2022/06/21 04:09:16;;;;;;;6.60;2.63;;;;;;;;;;5049546;28;20041;-70
2022/06/21 04:11:58;;;;;;;8.43;2.63;;;;;;;;;;5053569;28;20029;-70
2022/06/21 04:14:24;;;;;;;;;;;;;;;;;;5054691;28;20040;-70
2022/06/21 04:16:54;;;;;;;8.60;3.15;;;;;;;;;;5053994;28;20283;-70
2022/06/21 04:19:19;;;;;;;6.93;2.78;;;;;;;;;;5053867;28;20074;-70
2022/06/21 04:21:49;;;;;;;7.78;2.60;;;;;;;;;;5053984;28;20457;-70
2022/06/21 04:24:19;;;;;;;7.03;2.70;;;;;;;;;;5053928;28;20048;-69
2022/06/21 04:27:04;;;;;;;11.48;2.95;;;;;;;;;;5052582;28;20563;-70
2022/06/21 04:29:36;;;;;;;9.35;2.67;;;;;;;;;;5050765;28;20151;-70
2022/06/21 04:32:07;;;;;;;10.02;2.80;;;;;;;;;;5044891;28;20065;-70
2022/06/21 04:34:38;;;;;;;8.32;2.63;;;;;;;;;;5046481;28;20080;-70
2022/06/21 04:37:16;;;;;;;8.60;2.92;;;;;;;;;;5050742;28;20487;-70
2022/06/21 04:39:47;;;;;;;6.13;2.45;;;;;;;;;;5043069;28;20551;-70
2022/06/21 04:42:32;;;;;;;7.85;2.20;;;;;;;;;;5052913;28;20136;-70
2022/06/21 04:45:05;;;;;;;6.18;2.50;;;;;;;;;;5051715;28;20095;-70
2022/06/21 04:47:34;;;;;;;7.80;2.58;;;;;;;;;;5052921;28;20065;-71
2022/06/21 04:50:03;;;;;;;8.50;2.45;;;;;;;;;;5053048;28;20041;-70
2022/06/21 04:52:35;;;;;;;8.73;2.58;;;;;;;;;;5053251;28;20049;-70
2022/06/21 04:55:03;;;;;;;7.18;2.40;;;;;;;;;;5052552;28;20144;-70
2022/06/21 04:57:31;;;;;;;8.73;2.60;;;;;;;;;;5051296;28;20068;-70
2022/06/21 05:00:00;;;;;;;8.80;2.78;;;;;;;;;;5053416;28;20091;-70
2022/06/21 05:02:28;;;;;;;6.75;2.45;;;;;;;;;;5053158;28;20045;-71
2022/06/21 05:05:00;;;;;;;12.68;3.15;;;;;;;;;;5052305;28;20052;-70
2022/06/21 05:07:29;;;;;;;11.05;2.85;;;;;;;;;;5050446;28;20037;-71
2022/06/21 05:09:55;;;;;;;8.15;2.50;;;;;;;;;;5052082;28;20064;-70
2022/06/21 05:12:27;;;;;;;9.52;2.90;;;;;;;;;;5052501;28;20055;-70
2022/06/21 05:14:56;;;;;;;9.77;3.25;;;;;;;;;;5052693;28;20052;-70
2022/06/21 05:17:22;;;;;;;10.30;2.97;;;;;;;;;;5052816;28;20049;-69
2022/06/21 05:19:51;;;;;;;10.50;3.20;;;;;;;;;;5053168;28;20077;-70
2022/06/21 05:22:19;;;;;;;8.10;2.90;;;;;;;;;;5033224;28;20056;-69
2022/06/21 05:24:45;;;;;;;6.63;2.95;;;;;;;;;;5052178;28;20150;-70
2022/06/21 05:27:28;;;;;;;8.65;2.83;;;;;;;;;;5052192;28;20049;-70
2022/06/21 05:30:13;;;;;;;9.90;2.95;;;;;;;;;;5052417;28;20041;-70
2022/06/21 05:32:42;;;;;;;8.13;2.70;;;;;;;;;;5035301;28;20049;-70
2022/06/21 05:35:14;;;;;;;11.18;2.60;;;;;;;;;;5047989;28;20136;-70
2022/06/21 05:38:00;;;;;;;7.80;3.00;;;;;;;;;;5033345;28;20044;-70
2022/06/21 05:40:36;;;;;;;10.13;3.17;;;;;;;;;;5052463;28;20130;-70
2022/06/21 05:43:02;;;;;;;11.43;3.42;;;;;;;;;;5033565;28;20115;-70
2022/06/21 05:45:32;;;;;;;8.50;2.90;;;;;;;;;;5051245;28;20037;-70
2022/06/21 05:48:00;;;;;;;9.77;3.10;;;;;;;;;;5051226;28;20071;-70
2022/06/21 05:50:32;;;;;;;10.57;3.22;;;;;;;;;;5052116;28;20530;-70
2022/06/21 05:53:18;;;;;;;9.38;2.92;;;;;;;;;;5051848;28;20041;-70
2022/06/21 05:55:46;;;;;;;10.95;3.60;;;;;;;;;;5038475;28;20061;-70
2022/06/21 05:58:17;;;;;;;8.93;3.15;;;;;;;;;;5051633;28;20041;-70
2022/06/21 06:00:47;;;;;;;9.35;3.20;;;;;;;;;;5034740;28;20053;-69
2022/06/21 06:03:22;;;;;;;8.65;2.63;;;;;;;;;;5051556;28;20542;-70
2022/06/21 06:05:49;;;;;;;11.82;3.17;;;;;;;;;;5049328;28;20067;-70
2022/06/21 06:08:21;;;;;;;10.65;2.90;;;;;;;;;;5052570;28;20106;-70
2022/06/21 06:10:48;;;;;;;9.85;2.97;;;;;;;;;;5047930;28;20037;-70
2022/06/21 06:13:17;;;;;;;8.65;3.35;;;;;;;;;;5050966;28;20448;-71
2022/06/21 06:15:49;;;;;;;10.95;3.58;;;;;;;;;;5040529;28;20562;-70
2022/06/21 06:18:15;;;;;;;;;;;;;;;;;;5049954;28;20041;-70
2022/06/21 06:21:01;;;;;;;8.10;3.05;;;;;;;;;;5045516;28;19964;-70
2022/06/21 06:23:27;;;;;;;9.75;2.80;;;;;;;;;;5034568;28;20510;-70
2022/06/21 06:26:01;;;;;;;9.63;2.90;;;;;;;;;;5052019;28;20049;-70
2022/06/21 06:28:27;;;;;;;12.25;2.80;;;;;;;;;;5053678;28;20045;-70
2022/06/21 06:31:02;;;;;;;9.70;3.20;;;;;;;;;;5052270;28;20037;-70
2022/06/21 06:33:37;;;;;;;8.40;2.75;;;;;;;;;;5052443;28;20071;-71
2022/06/21 06:36:07;;;;;;;7.38;2.40;;;;;;;;;;5033768;28;20124;-71
2022/06/21 06:38:33;;;;;;;6.30;2.10;;;;;;;;;;5034412;28;20475;-70
2022/06/21 06:41:03;;;;;;;11.35;2.63;;;;;;;;;;5052052;28;20096;-70
2022/06/21 06:43:40;;;;;;;7.32;1.90;;;;;;;;;;5050987;28;20049;-70
2022/06/21 06:46:06;;;;;;;7.50;2.00;;;;;;;;;;5050069;28;20049;-70
2022/06/21 06:48:33;;;;;;;6.82;2.20;;;;;;;;;;5050597;28;20124;-69
2022/06/21 06:51:19;;;;;;;6.53;1.55;;;;;;;;;;5032281;28;20045;-70
2022/06/21 06:53:50;;;;;;;9.00;1.80;;;;;;;;;;5051788;28;20048;-69
2022/06/21 06:56:20;;;;;;;7.70;1.60;;;;;;;;;;5033517;28;20495;-70
2022/06/21 06:58:52;;;;;;;8.75;1.80;;;;;;;;;;5050294;28;20123;-70
2022/06/21 07:01:23;;;;;;;6.10;1.40;;;;;;;;;;5034032;28;20049;-70
2022/06/21 07:03:49;;;;;;;;;;;;;;;;;;5051536;28;20052;-69
2022/06/21 07:06:35;;;;;;;6.75;1.48;;;;;;;;;;5050933;28;19921;-70
2022/06/21 07:09:08;;;;;;;7.57;1.65;;;;;;;;;;5052406;28;20049;-69
2022/06/21 07:11:43;;;;;;;6.95;1.48;;;;;;;;;;5055807;28;20053;-70
2022/06/21 07:14:12;;;;;;;7.03;1.88;;;;;;;;;;5055563;28;20045;-70
2022/06/21 07:16:39;;;;;;;6.65;1.50;;;;;;;;;;5036033;28;21887;-69
2022/06/21 07:19:05;;;;;;;8.88;1.65;;;;;;;;;;5036219;28;20395;-70
2022/06/21 07:21:31;;;;;;;8.20;1.60;;;;;;;;;;5029163;28;20048;-71
2022/06/21 07:23:59;;;;;;;6.13;1.30;;;;;;;;;;5045911;28;20048;-69
2022/06/21 07:26:31;;;;;;;6.38;1.58;;;;;;;;;;5054915;28;20052;-70
2022/06/21 07:29:02;;;;;;;5.75;1.35;;;;;;;;;;5054315;28;20140;-70
2022/06/21 07:31:35;;;;;;;6.40;1.50;;;;;;;;;;5055227;28;20065;-70
2022/06/21 07:34:09;;;;;;;9.13;2.13;;;;;;;;;;5054228;28;20100;-70
2022/06/21 07:36:43;;;;;;;9.15;1.70;;;;;;;;;;5055247;28;20049;-70
2022/06/21 07:39:13;;;;;;;5.80;1.73;;;;;;;;;;5054053;28;20134;-70
2022/06/21 07:41:52;;;;;;;5.93;1.40;;;;;;;;;;5054991;28;20059;-70
2022/06/21 07:44:24;;;;;;;6.72;1.40;;;;;;;;;;5054906;28;20056;-70
2022/06/21 07:46:52;;;;;;;9.45;1.55;;;;;;;;;;5053532;28;20053;-70
2022/06/21 07:49:22;;;;;;;6.28;1.50;;;;;;;;;;5052815;28;20057;-70
2022/06/21 07:51:54;;;;;;;7.43;1.38;;;;;;;;;;5054200;28;20509;-70
2022/06/21 07:54:31;;;;;;;5.97;1.50;;;;;;;;;;5049884;28;20045;-71
2022/06/21 07:56:59;;;;;;;5.60;1.20;;;;;;;;;;5054904;28;20041;-70
2022/06/21 07:59:28;;;;;;;8.25;1.60;;;;;;;;;;5054946;28;20072;-69
2022/06/21 08:07:35;;;;;;;7.20;1.20;;;;;;;;;;5054531;28;20049;-70
2022/06/21 08:10:10;;;;;;;6.53;1.08;;;;;;;;;;5053750;28;20059;-70
2022/06/21 08:12:36;;;;;;;11.50;1.55;;;;;;;;;;5050376;28;20064;-69
2022/06/21 08:15:03;;;;;;;4.40;1.20;;;;;;;;;;5033784;28;20041;-70
2022/06/21 08:17:43;;;;;;;8.10;1.20;;;;;;;;;;5049632;28;20049;-70
2022/06/21 08:20:27;;;;;;;5.88;1.10;;;;;;;;;;5034219;28;20078;-70
2022/06/21 08:23:05;;;;;;;6.15;1.30;;;;;;;;;;5051516;28;20446;-71
2022/06/21 08:25:40;;;;;;;6.97;1.58;;;;;;;;;;5052610;28;20072;-70
2022/06/21 08:28:19;;;;;;;6.82;1.38;;;;;;;;;;5053771;28;20068;-70
2022/06/21 08:30:56;;;;;;;7.82;1.50;;;;;;;;;;5051270;28;20368;-70
2022/06/21 08:33:25;;;;;;;5.88;1.38;;;;;;;;;;5051511;28;20044;-69
2022/06/21 08:35:57;;;;;;;6.90;1.50;;;;;;;;;;5053784;28;20041;-69
2022/06/21 08:38:32;;;;;;;7.93;1.17;;;;;;;;;;5034333;28;20044;-69
2022/06/21 08:41:01;;;;;;;6.60;1.35;;;;;;;;;;5053779;28;20415;-71
2022/06/21 08:43:47;;;;;;;6.53;1.67;;;;;;;;;;5033874;28;20484;-70
2022/06/21 08:46:25;;;;;;;3.78;1.20;;;;;;;;;;5053535;28;20041;-70
2022/06/21 08:49:09;;;;;;;6.55;1.58;;;;;;;;;;5053527;28;20048;-70
2022/06/21 08:51:41;;;;;;;5.40;1.50;;;;;;;;;;5052358;28;20052;-69
2022/06/21 08:54:10;;;;;;;6.10;1.45;;;;;;;;;;5052732;28;20111;-70
2022/06/21 08:56:42;;;;;;;5.78;1.20;;;;;;;;;;5053605;28;20041;-69
2022/06/21 08:59:27;;;;;;;7.60;1.52;;;;;;;;;;5051620;28;20438;-69
2022/06/21 09:02:00;;;;;;;4.30;1.10;;;;;;;;;;5033580;28;20454;-70
2022/06/21 09:04:45;;;;;;;6.55;1.48;;;;;;;;;;5050685;28;20076;-70
2022/06/21 09:07:24;;;;;;;8.63;1.45;;;;;;;;;;5042452;28;20063;-70
2022/06/21 09:09:53;;;;;;;5.97;1.40;;;;;;;;;;5016112;28;20060;-69
2022/06/21 09:12:22;;;;;;;3.97;1.05;;;;;;;;;;5048761;28;20134;-70
2022/06/21 09:14:54;;;;;;;6.90;1.30;;;;;;;;;;5049133;28;20045;-70
2022/06/21 09:17:24;;;;;;;5.38;1.00;;;;;;;;;;5029624;28;20045;-70
2022/06/21 09:19:56;;;;;;;6.20;1.15;;;;;;;;;;5052810;28;20064;-69
2022/06/21 09:22:37;;;;;;;4.95;0.98;;;;;;;;;;5053038;28;20049;-70
2022/06/21 09:25:06;;;;;;;5.68;1.10;;;;;;;;;;5051637;28;20047;-68
2022/06/21 09:27:34;;;;;;;5.32;1.20;;;;;;;;;;5049954;28;20033;-68
2022/06/21 09:30:03;;;;;;;4.05;1.10;;;;;;;;;;5049145;28;20055;-69
2022/06/21 09:32:48;;;;;;;4.88;1.10;;;;;;;;;;5052470;28;20049;-69
2022/06/21 09:35:36;;;;;;;5.47;1.17;;;;;;;;;;5052911;28;20041;-69
2022/06/21 09:38:09;;;;;;;5.88;1.40;;;;;;;;;;5053003;28;20049;-69
2022/06/21 09:40:38;;;;;;;7.43;1.40;;;;;;;;;;5050399;28;20090;-69
2022/06/21 09:43:12;;;;;;;6.45;1.20;;;;;;;;;;5051031;28;20048;-69
2022/06/21 09:45:57;;;;;;;5.25;1.30;;;;;;;;;;5051704;28;20413;-69
2022/06/21 09:48:31;;;;;;;5.63;1.38;;;;;;;;;;5052370;28;20103;-69
2022/06/21 09:51:03;;;;;;;6.03;1.48;;;;;;;;;;5052742;28;20048;-69
2022/06/21 09:53:29;;;;;;;6.53;1.25;;;;;;;;;;5051762;28;20040;-70
2022/06/21 09:56:14;;;;;;;5.57;1.40;;;;;;;;;;5049595;28;20055;-71
2022/06/21 09:58:45;;;;;;;6.50;1.25;;;;;;;;;;5051500;28;20041;-70
2022/06/21 10:01:11;;;;;;;;;;;;;;;;;;5048131;28;20056;-70
2022/06/21 10:03:55;;;;;;;4.75;1.20;;;;;;;;;;5052647;28;20286;-69
2022/06/21 10:06:36;;;;;;;6.68;1.45;;;;;;;;;;5049441;28;20033;-70
2022/06/21 10:09:02;;;;;;;6.17;1.33;;;;;;;;;;5049635;28;20053;-70
2022/06/21 10:11:46;;;;;;;5.63;1.30;;;;;;;;;;5050549;28;20561;-70
2022/06/21 10:14:15;;;;;;;4.15;1.10;;;;;;;;;;5057388;28;20053;-70
2022/06/21 10:16:41;;;;;;;6.38;1.20;;;;;;;;;;5035862;28;20415;-70
2022/06/21 10:19:32;;;;;;;5.15;1.08;;;;;;;;;;5049422;28;20045;-70
2022/06/21 10:22:20;;;;;;;4.03;1.00;;;;;;;;;;5029802;28;20053;-69
2022/06/21 10:24:52;;;;;;;4.95;1.00;;;;;;;;;;5045813;28;20491;-70
2022/06/21 10:27:26;;;;;;;4.38;1.00;;;;;;;;;;5042223;28;20130;-70
2022/06/21 10:30:04;;;;;;;5.03;1.17;;;;;;;;;;5051398;28;20048;-69
2022/06/21 10:32:46;;;;;;;6.75;1.30;;;;;;;;;;5049151;28;20052;-70
2022/06/21 10:35:21;;;;;;;7.10;1.15;;;;;;;;;;5016095;28;20060;-69
2022/06/21 10:37:47;;;;;;;4.97;1.25;;;;;;;;;;5052435;28;20502;-69
2022/06/21 10:40:32;;;;;;;5.60;1.20;;;;;;;;;;5051638;28;20171;-70
2022/06/21 10:43:04;;;;;;;5.43;1.25;;;;;;;;;;5054603;28;20411;-69
2022/06/21 10:45:36;;;;;;;7.45;1.30;;;;;;;;;;5053322;28;20037;-70
2022/06/21 10:48:02;;;;;;;4.15;1.05;;;;;;;;;;5055141;28;20553;-69
2022/06/21 10:50:34;;;;;;;5.20;1.30;;;;;;;;;;5038021;28;20045;-69
2022/06/21 10:53:03;;;;;;;2.85;1.00;;;;;;;;;;5054014;28;20120;-69
2022/06/21 10:55:35;;;;;;;4.10;1.00;;;;;;;;;;5050325;28;20107;-70
2022/06/21 10:58:11;;;;;;;4.60;1.10;;;;;;;;;;5053920;28;20543;-69
2022/06/21 11:03:28;;;;;;;5.72;1.42;;;;;;;;;;5052996;28;20044;-69
2022/06/21 11:06:06;;;;;;;5.30;1.13;;;;;;;;;;5036833;28;20395;-70
2022/06/21 11:08:52;;;;;;;4.05;1.20;;;;;;;;;;5054766;28;20045;-69
2022/06/21 11:11:26;;;;;;;5.53;1.27;;;;;;;;;;5054763;28;20103;-70
2022/06/21 11:14:11;;;;;;;5.20;1.40;;;;;;;;;;5034266;28;20041;-70
2022/06/21 11:16:50;;;;;;;4.60;1.00;;;;;;;;;;5043747;28;20041;-70
2022/06/21 11:19:19;;;;;;;4.68;1.10;;;;;;;;;;5053870;28;20078;-69
2022/06/21 11:21:58;;;;;;;5.20;1.35;;;;;;;;;;5053567;28;20576;-70
2022/06/21 11:24:32;;;;;;;6.53;1.20;;;;;;;;;;5035699;28;20053;-69
2022/06/21 11:27:01;;;;;;;4.93;0.80;;;;;;;;;;5053981;28;20048;-69
2022/06/21 11:29:42;;;;;;;4.53;0.80;;;;;;;;;;5054442;28;20052;-70
2022/06/21 11:32:08;;;;;;;;;;;;;;;;;;5045931;28;20086;-68
2022/06/21 11:34:44;;;;;;;6.25;0.95;;;;;;;;;;5054132;28;19925;-70
2022/06/21 11:37:22;;;;;;;5.40;1.20;;;;;;;;;;5054623;28;20045;-69
2022/06/21 11:39:57;;;;;;;6.28;1.27;;;;;;;;;;5053759;28;20387;-70
2022/06/21 11:42:30;;;;;;;6.18;1.20;;;;;;;;;;5053981;28;20538;-70
2022/06/21 11:45:17;;;;;;;3.33;1.13;;;;;;;;;;5053811;28;20075;-70
2022/06/21 11:48:01;;;;;;;4.72;1.25;;;;;;;;;;5054667;28;20086;-70
2022/06/21 11:50:46;;;;;;;5.00;1.13;;;;;;;;;;5052571;28;20080;-70
2022/06/21 11:53:24;;;;;;;4.32;0.95;;;;;;;;;;5048466;28;20479;-70
2022/06/21 11:56:09;;;;;;;7.43;0.93;;;;;;;;;;5050383;28;20048;-70
2022/06/21 11:58:43;;;;;;;7.22;1.00;;;;;;;;;;5054500;28;20052;-70
2022/06/21 12:01:09;;;;;;;5.07;0.90;;;;;;;;;;5053927;28;20051;-70
2022/06/21 12:03:43;;;;;;;5.25;1.13;;;;;;;;;;5052785;28;20033;-70
2022/06/21 12:06:39;;;;;;;5.45;1.20;;;;;;;;;;5053906;28;20044;-70
2022/06/21 12:09:13;;;;;;;5.40;0.98;;;;;;;;;;4953308;28;20109;-70
2022/06/21 12:11:58;;;;;;;3.00;0.70;;;;;;;;;;4954304;29;20062;-70
2022/06/21 12:14:43;;;;;;;4.68;1.00;;;;;;;;;;4953412;29;20506;-69
2022/06/21 12:17:22;;;;;;;5.60;1.00;;;;;;;;;;4953834;28;20122;-71
2022/06/21 12:19:57;;;;;;;5.07;0.90;;;;;;;;;;4954122;29;20086;-69
2022/06/21 12:22:33;;;;;;;6.47;1.10;;;;;;;;;;4952882;28;20498;-69
2022/06/21 12:24:59;;;;;;;6.50;1.00;;;;;;;;;;4951412;29;20043;-70
2022/06/21 12:27:26;;;;;;;7.28;1.83;;;;;;;;;;4952370;28;20062;-69
2022/06/21 12:30:07;;;;;;;4.85;0.90;;;;;;;;;;4953752;28;20059;-69
2022/06/21 12:32:33;;;;;;;5.03;1.08;;;;;;;;;;4952359;28;20560;-70
2022/06/21 12:35:07;;;;;;;6.65;1.05;;;;;;;;;;4953772;29;20043;-69
2022/06/21 12:37:38;;;;;;;6.10;1.00;;;;;;;;;;4953780;29;20102;-70
2022/06/21 12:40:07;;;;;;;4.38;0.73;;;;;;;;;;4953775;29;20430;-69
2022/06/21 12:42:42;;;;;;;5.10;1.10;;;;;;;;;;4936874;29;20055;-69
2022/06/21 12:45:22;;;;;;;5.28;1.20;;;;;;;;;;4989774;28;20500;-70
2022/06/21 12:47:54;;;;;;;4.82;0.93;;;;;;;;;;5052364;28;20049;-70
2022/06/21 12:50:26;;;;;;;6.30;1.17;;;;;;;;;;5053738;28;20124;-70
2022/06/21 12:53:01;;;;;;;4.97;1.20;;;;;;;;;;5051488;28;20388;-69
2022/06/21 12:55:30;;;;;;;6.68;1.13;;;;;;;;;;5053461;28;20044;-70
2022/06/21 12:58:04;;;;;;;4.20;0.75;;;;;;;;;;5054553;28;20043;-70
2022/06/21 13:00:40;;;;;;;8.18;1.20;;;;;;;;;;5054819;28;20124;-71
2022/06/21 13:03:12;;;;;;;4.25;0.88;;;;;;;;;;5053305;28;20155;-71
2022/06/21 13:05:43;;;;;;;5.88;1.23;;;;;;;;;;5053669;28;20049;-70
2022/06/21 13:08:09;;;;;;;5.65;1.20;;;;;;;;;;5035903;28;20053;-70
2022/06/21 13:10:41;;;;;;;6.35;1.33;;;;;;;;;;5051799;28;20049;-69
2022/06/21 13:13:13;;;;;;;5.47;0.98;;;;;;;;;;5051711;28;20041;-70
2022/06/21 13:15:54;;;;;;;5.32;1.20;;;;;;;;;;5051672;28;20053;-70
2022/06/21 13:18:20;;;;;;;6.57;1.30;;;;;;;;;;5041931;28;20071;-70
2022/06/21 13:20:55;;;;;;;4.60;1.13;;;;;;;;;;5050710;28;20812;-70
2022/06/21 13:23:26;;;;;;;7.00;1.20;;;;;;;;;;5051042;28;20041;-70
2022/06/21 13:25:57;;;;;;;8.82;1.10;;;;;;;;;;5053221;28;20049;-71
2022/06/21 13:28:36;;;;;;;5.22;1.00;;;;;;;;;;5052365;28;20045;-70
2022/06/21 13:31:06;;;;;;;5.72;1.38;;;;;;;;;;5052287;28;20084;-70
2022/06/21 13:33:35;;;;;;;5.77;0.90;;;;;;;;;;5033788;28;20060;-70
2022/06/21 13:36:02;;;;;;;5.90;1.13;;;;;;;;;;5035200;28;20785;-69
2022/06/21 13:38:37;;;;;;;6.57;1.23;;;;;;;;;;5052361;28;20044;-70
2022/06/21 13:41:06;;;;;;;6.60;1.27;;;;;;;;;;5052992;28;20052;-70
2022/06/21 13:43:38;;;;;;;7.22;1.10;;;;;;;;;;5035003;28;20045;-70
2022/06/21 13:46:20;;;;;;;5.15;0.88;;;;;;;;;;5034735;28;20048;-71
2022/06/21 13:48:51;;;;;;;4.45;0.90;;;;;;;;;;5052783;28;20111;-70
2022/06/21 13:51:18;;;;;;;6.22;1.00;;;;;;;;;;5052752;28;20055;-70
2022/06/21 13:53:44;;;;;;;4.57;0.80;;;;;;;;;;5051394;28;20047;-70
2022/06/21 13:56:17;;;;;;;4.80;0.90;;;;;;;;;;5052369;28;20447;-70
2022/06/21 13:58:46;;;;;;;5.15;1.17;;;;;;;;;;5049238;28;20083;-70
2022/06/21 14:01:33;;;;;;;6.88;1.30;;;;;;;;;;5034278;28;20053;-71
2022/06/21 14:04:05;;;;;;;6.28;1.00;;;;;;;;;;5050730;28;20053;-70
2022/06/21 14:06:32;;;;;;;4.57;1.00;;;;;;;;;;5034053;28;20053;-71
2022/06/21 14:09:13;;;;;;;6.95;1.10;;;;;;;;;;5035070;28;20049;-70
2022/06/21 14:11:51;;;;;;;5.07;0.95;;;;;;;;;;5052395;28;20127;-70
2022/06/21 14:14:35;;;;;;;5.03;1.00;;;;;;;;;;5051512;28;20052;-71
2022/06/21 14:17:40;;;;;;;6.18;0.93;;;;;;;;;;5040508;28;20076;-71
2022/06/21 14:20:18;;;;;;;5.38;1.13;;;;;;;;;;4971001;28;20143;-69
2022/06/21 14:22:51;;;;;;;4.65;0.93;;;;;;;;;;4971863;28;20047;-70
2022/06/21 14:25:27;;;;;;;4.47;0.90;;;;;;;;;;4971890;28;20082;-70
2022/06/21 14:27:57;;;;;;;4.65;0.90;;;;;;;;;;4958537;28;20109;-71
2022/06/21 14:30:29;;;;;;;5.32;1.17;;;;;;;;;;4959672;28;20053;-70
2022/06/21 14:33:07;;;;;;;4.55;1.00;;;;;;;;;;4990077;28;20054;-70
2022/06/21 14:35:39;;;;;;;4.82;0.90;;;;;;;;;;4974272;28;20062;-70
2022/06/21 14:38:12;;;;;;;4.15;1.10;;;;;;;;;;4975463;28;20061;-71
2022/06/21 14:40:47;;;;;;;6.13;1.08;;;;;;;;;;4974505;28;20055;-70
2022/06/21 14:43:13;;;;;;;4.50;0.90;;;;;;;;;;4957065;28;20066;-70
2022/06/21 14:45:47;;;;;;;4.97;1.08;;;;;;;;;;4972265;28;20074;-71
2022/06/21 14:48:23;;;;;;;5.57;0.95;;;;;;;;;;4974275;28;20070;-71
2022/06/21 14:50:56;;;;;;;5.25;1.10;;;;;;;;;;4974117;28;20055;-70
2022/06/21 14:53:28;;;;;;;6.35;0.90;;;;;;;;;;4980058;28;20064;-70
2022/06/21 14:56:13;;;;;;;6.03;1.15;;;;;;;;;;5013168;28;20125;-71
2022/06/21 14:58:46;;;;;;;5.28;1.17;;;;;;;;;;5010093;28;20041;-72
2022/06/21 15:01:12;;;;;;;5.68;1.10;;;;;;;;;;5013745;28;20038;-71
2022/06/21 15:04:00;;;;;;;4.90;1.10;;;;;;;;;;5013978;28;20117;-71
2022/06/21 15:06:30;;;;;;;3.22;0.80;;;;;;;;;;5009877;28;20100;-71
2022/06/21 15:09:02;;;;;;;5.22;1.00;;;;;;;;;;5014974;28;20129;-70
2022/06/21 15:11:52;;;;;;;5.38;0.98;;;;;;;;;;5012661;28;20057;-70
2022/06/21 15:14:20;;;;;;;5.97;1.00;;;;;;;;;;5011279;28;20054;-70
2022/06/21 15:16:51;;;;;;;4.53;1.00;;;;;;;;;;5003969;28;20116;-70
2022/06/21 15:22:22;;;;;;;4.47;0.90;;;;;;;;;;5004427;28;20054;-71
2022/06/21 15:24:49;;;;;;;7.07;1.13;;;;;;;;;;5029818;28;20034;-71
2022/06/21 15:27:19;;;;;;;4.60;1.00;;;;;;;;;;5015620;28;20476;-71
2022/06/21 15:29:51;;;;;;;5.18;1.10;;;;;;;;;;5013791;28;20053;-71